createdAt,value
2018-08-21T00:02:17.462Z,23.89
2018-08-21T00:04:50.750Z,24.04
2018-08-21T00:07:18.821Z,23.80
2018-08-21T00:09:46.914Z,23.60
2018-08-21T00:12:14.994Z,23.52
2018-08-21T00:14:45.360Z,23.50
2018-08-21T00:17:13.456Z,23.48
2018-08-21T00:19:41.534Z,23.24
2018-08-21T00:22:09.625Z,23.24
2018-08-21T00:24:37.707Z,23.33
2018-08-21T00:27:07.011Z,23.10
2018-08-21T00:29:37.991Z,23.06
2018-08-21T00:32:07.151Z,23.10
2018-08-21T00:34:36.387Z,23.11
2018-08-21T00:37:05.764Z,23.16
2018-08-21T00:39:34.535Z,23.04
2018-08-21T00:42:05.892Z,22.98
2018-08-21T00:44:34.523Z,22.91
2018-08-21T00:47:02.859Z,22.93
2018-08-21T00:49:30.996Z,23.03
2018-08-21T00:51:59.092Z,23.02
2018-08-21T00:54:27.215Z,22.97
2018-08-21T00:56:55.287Z,22.87
2018-08-21T00:59:24.081Z,22.88
2018-08-21T01:01:52.139Z,22.91
2018-08-21T01:04:20.199Z,23.05
2018-08-21T01:06:48.326Z,23.15
2018-08-21T01:09:18.456Z,23.28
2018-08-21T01:11:47.196Z,23.45
2018-08-21T01:14:15.267Z,23.52
2018-08-21T01:16:43.407Z,23.60
2018-08-21T01:19:12.130Z,23.60
2018-08-21T01:21:40.795Z,23.60
2018-08-21T01:24:08.896Z,23.45
2018-08-21T01:26:36.991Z,23.36
2018-08-21T01:29:05.124Z,23.32
2018-08-21T01:31:33.248Z,23.41
2018-08-21T01:34:01.410Z,23.48
2018-08-21T01:36:29.523Z,23.60
2018-08-21T01:38:57.676Z,23.67
2018-08-21T01:41:25.848Z,23.66
2018-08-21T01:43:53.947Z,23.53
2018-08-21T01:46:22.039Z,23.49
2018-08-21T01:48:50.142Z,23.58
2018-08-21T01:51:18.247Z,23.55
2018-08-21T01:53:57.727Z,23.59
2018-08-21T01:56:26.060Z,23.51
2018-08-21T01:58:54.173Z,23.54
2018-08-21T02:01:22.460Z,23.52
2018-08-21T02:03:50.531Z,23.54
2018-08-21T02:06:18.756Z,23.44
2018-08-21T02:08:46.864Z,23.47
2018-08-21T02:11:14.997Z,23.60
2018-08-21T02:13:43.152Z,23.52
2018-08-21T02:16:11.263Z,23.43
2018-08-21T02:18:39.346Z,23.48
2018-08-21T02:21:07.462Z,23.32
2018-08-21T02:23:35.536Z,23.43
2018-08-21T02:26:03.662Z,23.46
2018-08-21T02:28:31.752Z,23.40
2018-08-21T02:30:59.860Z,23.30
2018-08-21T02:33:27.951Z,23.55
2018-08-21T02:35:56.719Z,23.52
2018-08-21T02:38:24.856Z,23.56
2018-08-21T02:40:52.968Z,23.50
2018-08-21T02:43:21.042Z,23.45
2018-08-21T02:45:49.156Z,23.39
2018-08-21T02:48:23.673Z,23.33
2018-08-21T02:50:51.955Z,23.27
2018-08-21T02:53:20.040Z,23.41
2018-08-21T02:55:48.144Z,23.43
2018-08-21T02:58:16.267Z,23.47
2018-08-21T03:00:44.403Z,23.34
2018-08-21T03:03:12.485Z,23.21
2018-08-21T03:05:40.560Z,23.35
2018-08-21T03:08:08.663Z,23.29
2018-08-21T03:10:36.740Z,23.10
2018-08-21T03:13:04.834Z,23.11
2018-08-21T03:15:32.900Z,23.04
2018-08-21T03:18:01.028Z,23.04
2018-08-21T03:20:29.107Z,23.13
2018-08-21T03:22:57.192Z,23.05
2018-08-21T03:25:25.281Z,23.08
2018-08-21T03:27:53.363Z,23.06
2018-08-21T03:30:21.449Z,23.10
2018-08-21T03:32:49.539Z,22.93
2018-08-21T03:35:17.603Z,23.01
2018-08-21T03:37:45.681Z,23.02
2018-08-21T03:40:13.772Z,23.00
2018-08-21T03:42:41.868Z,23.03
2018-08-21T03:45:09.952Z,22.93
2018-08-21T03:47:44.340Z,22.93
2018-08-21T03:50:13.005Z,23.12
2018-08-21T03:52:41.117Z,22.94
2018-08-21T03:55:11.079Z,23.06
2018-08-21T03:57:39.252Z,22.94
2018-08-21T04:00:13.595Z,22.98
2018-08-21T04:02:41.687Z,22.96
2018-08-21T04:05:09.861Z,22.88
2018-08-21T04:07:37.863Z,22.74
2018-08-21T04:10:06.001Z,22.72
2018-08-21T04:12:34.099Z,22.73
2018-08-21T04:15:02.178Z,22.70
2018-08-21T04:17:31.447Z,22.67
2018-08-21T04:20:00.340Z,22.51
2018-08-21T04:22:30.086Z,22.62
2018-08-21T04:24:58.193Z,22.56
2018-08-21T04:27:26.359Z,22.53
2018-08-21T04:29:54.644Z,22.52
2018-08-21T04:32:23.982Z,22.61
2018-08-21T04:34:55.217Z,22.57
2018-08-21T04:37:23.681Z,22.57
2018-08-21T04:39:58.419Z,22.56
2018-08-21T04:42:26.520Z,22.54
2018-08-21T04:44:54.654Z,22.61
2018-08-21T04:47:32.387Z,22.45
2018-08-21T04:50:01.644Z,22.37
2018-08-21T04:52:30.322Z,22.56
2018-08-21T04:54:59.150Z,22.57
2018-08-21T04:57:27.456Z,22.51
2018-08-21T04:59:56.220Z,22.42
2018-08-21T05:02:37.583Z,22.39
2018-08-21T05:05:05.820Z,22.40
2018-08-21T05:08:00.571Z,22.40
2018-08-21T05:10:28.643Z,22.48
2018-08-21T05:12:57.548Z,22.48
2018-08-21T05:15:27.285Z,22.56
2018-08-21T05:18:00.015Z,22.51
2018-08-21T05:20:29.963Z,22.46
2018-08-21T05:22:58.061Z,22.54
2018-08-21T05:25:37.660Z,22.48
2018-08-21T05:28:05.759Z,22.48
2018-08-21T05:30:39.275Z,22.53
2018-08-21T05:33:07.560Z,22.60
2018-08-21T05:35:35.637Z,22.63
2018-08-21T05:38:03.708Z,22.62
2018-08-21T05:40:33.010Z,22.59
2018-08-21T05:43:01.114Z,22.73
2018-08-21T05:45:29.742Z,22.77
2018-08-21T05:47:58.291Z,22.93
2018-08-21T05:50:27.146Z,22.99
2018-08-21T05:52:55.222Z,22.87
2018-08-21T05:55:23.453Z,23.12
2018-08-21T05:57:51.421Z,23.10
2018-08-21T06:00:20.975Z,23.01
2018-08-21T06:02:50.679Z,23.01
2018-08-21T06:05:18.743Z,23.08
2018-08-21T06:07:46.875Z,23.13
2018-08-21T06:10:14.971Z,23.25
2018-08-21T06:12:58.811Z,23.23
2018-08-21T06:15:26.894Z,23.20
2018-08-21T06:18:02.111Z,23.28
2018-08-21T06:20:31.337Z,23.30
2018-08-21T06:22:59.387Z,23.27
2018-08-21T06:25:27.468Z,23.35
2018-08-21T06:27:55.839Z,23.40
2018-08-21T06:30:23.930Z,23.42
2018-08-21T06:32:52.012Z,23.52
2018-08-21T06:35:20.104Z,23.53
2018-08-21T06:37:50.608Z,23.58
2018-08-21T06:40:18.898Z,23.64
2018-08-21T06:42:47.090Z,23.70
2018-08-21T06:45:15.192Z,23.73
2018-08-21T06:47:43.347Z,23.69
2018-08-21T06:50:11.483Z,23.72
2018-08-21T06:52:39.603Z,23.77
2018-08-21T06:55:07.727Z,23.77
2018-08-21T06:57:35.881Z,23.78
2018-08-21T07:00:04.629Z,23.83
2018-08-21T07:02:32.640Z,23.90
2018-08-21T07:05:03.514Z,23.96
2018-08-21T07:07:31.606Z,23.94
2018-08-21T07:09:59.653Z,23.92
2018-08-21T07:12:28.326Z,24.00
2018-08-21T07:14:56.767Z,24.01
2018-08-21T07:17:31.019Z,23.97
2018-08-21T07:19:59.114Z,23.88
2018-08-21T07:22:27.176Z,23.84
2018-08-21T07:24:56.115Z,23.96
2018-08-21T07:27:27.274Z,23.97
2018-08-21T07:29:58.793Z,24.04
2018-08-21T07:32:30.319Z,24.03
2018-08-21T07:35:00.863Z,24.01
2018-08-21T07:37:28.969Z,24.08
2018-08-21T07:39:57.938Z,24.18
2018-08-21T07:42:27.117Z,24.25
2018-08-21T07:44:55.206Z,24.30
2018-08-21T07:47:25.573Z,24.40
2018-08-21T07:49:53.677Z,24.46
2018-08-21T07:52:21.751Z,24.54
2018-08-21T07:54:49.827Z,24.67
2018-08-21T07:57:17.979Z,24.72
2018-08-21T07:59:46.331Z,24.78
2018-08-21T08:02:14.412Z,24.88
2018-08-21T08:04:42.511Z,25.00
2018-08-21T08:07:26.929Z,25.03
2018-08-21T08:09:55.091Z,25.08
2018-08-21T08:12:23.180Z,25.01
2018-08-21T08:14:51.291Z,25.01
2018-08-21T08:17:19.484Z,25.15
2018-08-21T08:19:47.594Z,25.19
2018-08-21T08:22:21.072Z,25.16
2018-08-21T08:24:51.007Z,25.19
2018-08-21T08:27:19.626Z,25.07
2018-08-21T08:29:47.699Z,25.23
2018-08-21T08:32:15.799Z,25.17
2018-08-21T08:34:43.897Z,25.40
2018-08-21T08:37:12.002Z,25.38
2018-08-21T08:39:40.084Z,25.37
2018-08-21T08:42:08.192Z,25.40
2018-08-21T08:44:36.274Z,25.38
2018-08-21T08:47:09.560Z,25.32
2018-08-21T08:49:41.811Z,25.32
2018-08-21T08:52:11.777Z,25.40
2018-08-21T08:54:39.870Z,25.49
2018-08-21T08:57:07.997Z,25.57
2018-08-21T08:59:36.088Z,25.69
2018-08-21T09:02:04.222Z,25.79
2018-08-21T09:04:32.282Z,25.80
2018-08-21T09:07:00.435Z,25.72
2018-08-21T09:09:28.513Z,25.71
2018-08-21T09:11:56.600Z,25.84
2018-08-21T09:14:30.015Z,25.78
2018-08-21T09:17:19.959Z,25.80
2018-08-21T09:20:06.320Z,25.85
2018-08-21T09:22:35.438Z,25.93
2018-08-21T09:25:03.569Z,26.02
2018-08-21T09:27:36.937Z,26.07
2018-08-21T09:30:05.971Z,26.02
2018-08-21T09:32:35.038Z,25.70
2018-08-21T09:35:04.516Z,25.90
2018-08-21T09:37:32.656Z,26.06
2018-08-21T09:40:01.546Z,26.05
2018-08-21T09:42:29.678Z,26.10
2018-08-21T09:44:57.989Z,26.21
2018-08-21T09:47:26.719Z,26.34
2018-08-21T09:50:00.133Z,26.39
2018-08-21T09:52:29.025Z,26.43
2018-08-21T09:55:04.279Z,26.47
2018-08-21T09:57:33.649Z,26.44
2018-08-21T10:00:03.849Z,26.54
2018-08-21T10:02:37.331Z,26.58
2018-08-21T10:05:10.795Z,26.41
2018-08-21T10:07:38.887Z,26.49
2018-08-21T10:10:07.899Z,26.72
2018-08-21T10:12:36.384Z,26.81
2018-08-21T10:15:06.607Z,26.84
2018-08-21T10:17:34.724Z,26.84
2018-08-21T10:20:08.095Z,26.94
2018-08-21T10:22:36.196Z,26.79
2018-08-21T10:25:04.702Z,26.93
2018-08-21T10:27:32.811Z,26.97
2018-08-21T10:30:00.903Z,27.09
2018-08-21T10:32:28.970Z,27.21
2018-08-21T10:34:57.093Z,27.28
2018-08-21T10:37:30.464Z,27.32
2018-08-21T10:39:58.553Z,27.32
2018-08-21T10:42:26.616Z,27.58
2018-08-21T10:44:54.707Z,27.78
2018-08-21T10:47:22.772Z,27.87
2018-08-21T10:49:50.924Z,27.77
2018-08-21T10:52:19.015Z,27.84
2018-08-21T10:54:47.079Z,27.88
2018-08-21T10:57:15.205Z,27.92
2018-08-21T10:59:43.386Z,27.95
2018-08-21T11:02:29.787Z,27.99
2018-08-21T11:05:00.087Z,28.09
2018-08-21T11:08:06.630Z,28.08
2018-08-21T11:10:41.012Z,28.04
2018-08-21T11:13:09.097Z,28.26
2018-08-21T11:15:37.171Z,28.26
2018-08-21T11:18:05.307Z,28.54
2018-08-21T11:20:35.566Z,28.85
2018-08-21T11:23:04.557Z,29.02
2018-08-21T11:25:33.008Z,29.13
2018-08-21T11:28:01.351Z,29.18
2018-08-21T11:30:29.539Z,29.11
2018-08-21T11:32:57.600Z,29.04
2018-08-21T11:35:25.748Z,29.14
2018-08-21T11:37:53.861Z,28.90
2018-08-21T11:40:21.911Z,29.01
2018-08-21T11:42:51.051Z,28.78
2018-08-21T11:45:20.426Z,28.90
2018-08-21T11:47:48.940Z,29.03
2018-08-21T11:50:17.042Z,29.16
2018-08-21T11:52:45.147Z,29.23
2018-08-21T11:55:13.278Z,29.35
2018-08-21T11:57:41.395Z,29.45
2018-08-21T12:00:11.335Z,29.36
2018-08-21T12:02:39.544Z,29.39
2018-08-21T12:05:07.669Z,29.30
2018-08-21T12:07:35.844Z,29.26
2018-08-21T12:10:04.288Z,29.12
2018-08-21T12:12:32.852Z,28.80
2018-08-21T12:15:00.943Z,28.92
2018-08-21T12:17:29.163Z,29.24
2018-08-21T12:19:57.261Z,29.38
2018-08-21T12:22:25.460Z,29.44
2018-08-21T12:24:53.617Z,29.33
2018-08-21T12:27:21.781Z,29.34
2018-08-21T12:29:49.947Z,29.58
2018-08-21T12:32:18.228Z,29.59
2018-08-21T12:34:46.303Z,29.53
2018-08-21T12:37:14.380Z,29.50
2018-08-21T12:39:42.808Z,29.54
2018-08-21T12:42:10.897Z,29.64
2018-08-21T12:44:38.966Z,29.76
2018-08-21T12:47:07.062Z,29.70
2018-08-21T12:49:35.171Z,29.71
2018-08-21T12:52:03.263Z,29.70
2018-08-21T12:54:31.419Z,29.82
2018-08-21T12:56:59.680Z,29.96
2018-08-21T12:59:27.665Z,29.91
2018-08-21T13:01:55.796Z,29.85
2018-08-21T13:04:24.027Z,29.79
2018-08-21T13:06:52.123Z,29.74
2018-08-21T13:09:20.211Z,29.59
2018-08-21T13:11:48.296Z,29.61
2018-08-21T13:14:16.384Z,29.67
2018-08-21T13:16:44.471Z,29.66
2018-08-21T13:19:12.615Z,29.66
2018-08-21T13:21:40.720Z,29.75
2018-08-21T13:24:08.793Z,29.96
2018-08-21T13:26:36.919Z,30.02
2018-08-21T13:29:11.609Z,30.08
2018-08-21T13:31:39.691Z,30.05
2018-08-21T13:34:07.842Z,30.34
2018-08-21T13:36:35.998Z,30.48
2018-08-21T13:39:06.231Z,30.27
2018-08-21T13:41:34.333Z,30.27
2018-08-21T13:44:02.508Z,30.19
2018-08-21T13:46:30.643Z,30.05
2018-08-21T13:48:58.716Z,30.03
2018-08-21T13:51:26.832Z,29.86
2018-08-21T13:53:54.913Z,30.09
2018-08-21T13:56:23.008Z,30.28
2018-08-21T13:58:51.144Z,30.30
2018-08-21T14:01:19.252Z,30.09
2018-08-21T14:03:47.337Z,30.30
2018-08-21T14:06:15.464Z,30.18
2018-08-21T14:08:43.554Z,30.19
2018-08-21T14:11:11.619Z,30.43
2018-08-21T14:13:39.709Z,30.46
2018-08-21T14:16:07.787Z,30.21
2018-08-21T14:18:35.878Z,30.37
2018-08-21T14:21:04.294Z,30.47
2018-08-21T14:23:32.371Z,30.52
2018-08-21T14:26:00.492Z,30.36
2018-08-21T14:28:28.587Z,30.48
2018-08-21T14:30:56.676Z,30.38
2018-08-21T14:33:24.955Z,30.27
2018-08-21T14:35:53.096Z,30.15
2018-08-21T14:38:21.254Z,30.02
2018-08-21T14:40:49.430Z,30.01
2018-08-21T14:43:17.523Z,30.02
2018-08-21T14:45:45.671Z,30.15
2018-08-21T14:48:13.780Z,30.11
2018-08-21T14:50:41.948Z,29.96
2018-08-21T14:53:10.080Z,30.04
2018-08-21T14:55:38.205Z,30.15
2018-08-21T14:58:06.296Z,30.30
2018-08-21T15:00:34.407Z,30.30
2018-08-21T15:03:02.491Z,30.29
2018-08-21T15:05:30.604Z,30.21
2018-08-21T15:07:58.756Z,30.16
2018-08-21T15:10:26.861Z,30.25
2018-08-21T15:12:55.032Z,30.39
2018-08-21T15:15:23.213Z,30.34
2018-08-21T15:17:51.307Z,30.19
2018-08-21T15:20:19.464Z,30.25
2018-08-21T15:22:47.665Z,30.26
2018-08-21T15:25:15.775Z,30.34
2018-08-21T15:27:44.255Z,30.38
2018-08-21T15:30:12.259Z,30.34
2018-08-21T15:32:40.328Z,30.22
2018-08-21T15:35:08.396Z,30.40
2018-08-21T15:37:36.475Z,30.38
2018-08-21T15:40:05.165Z,30.48
2018-08-21T15:42:33.208Z,30.61
2018-08-21T15:45:01.286Z,30.64
2018-08-21T15:47:29.404Z,30.72
2018-08-21T15:49:57.579Z,30.60
2018-08-21T15:52:25.759Z,30.64
2018-08-21T15:54:53.920Z,30.65
2018-08-21T15:57:22.016Z,30.74
2018-08-21T15:59:50.100Z,30.72
2018-08-21T16:02:18.208Z,30.66
2018-08-21T16:04:46.342Z,30.69
2018-08-21T16:07:14.447Z,30.59
2018-08-21T16:09:42.563Z,30.67
2018-08-21T16:12:10.821Z,30.63
2018-08-21T16:14:38.899Z,30.63
2018-08-21T16:17:06.983Z,30.62
2018-08-21T16:19:35.056Z,30.49
2018-08-21T16:22:03.166Z,30.40
2018-08-21T16:24:31.222Z,30.49
2018-08-21T16:26:59.473Z,30.49
2018-08-21T16:29:27.553Z,30.50
2018-08-21T16:31:55.646Z,30.23
2018-08-21T16:34:23.719Z,30.31
2018-08-21T16:36:51.850Z,30.32
2018-08-21T16:39:20.017Z,30.45
2018-08-21T16:41:48.080Z,30.45
2018-08-21T16:44:16.160Z,30.55
2018-08-21T16:46:44.255Z,30.47
2018-08-21T16:49:12.364Z,30.45
2018-08-21T16:51:40.463Z,30.43
2018-08-21T16:54:08.551Z,30.26
2018-08-21T16:56:36.635Z,30.35
2018-08-21T16:59:04.752Z,30.30
2018-08-21T17:01:32.788Z,30.21
2018-08-21T17:04:00.880Z,30.13
2018-08-21T17:06:28.966Z,30.13
2018-08-21T17:08:57.054Z,30.15
2018-08-21T17:11:25.127Z,30.00
2018-08-21T17:13:53.214Z,29.90
2018-08-21T17:16:21.336Z,29.90
2018-08-21T17:18:49.439Z,29.71
2018-08-21T17:21:17.511Z,29.65
2018-08-21T17:23:45.618Z,29.66
2018-08-21T17:26:13.696Z,29.58
2018-08-21T17:28:41.750Z,29.51
2018-08-21T17:31:09.830Z,29.41
2018-08-21T17:33:37.970Z,29.26
2018-08-21T17:36:06.160Z,29.25
2018-08-21T17:38:34.218Z,29.24
2018-08-21T17:41:02.285Z,29.26
2018-08-21T17:43:30.554Z,29.19
2018-08-21T17:45:59.433Z,29.08
2018-08-21T17:48:27.851Z,29.11
2018-08-21T17:50:57.138Z,29.00
2018-08-21T17:53:25.450Z,28.95
2018-08-21T17:55:53.656Z,28.89
2018-08-21T17:58:23.045Z,28.89
2018-08-21T18:00:51.996Z,28.81
2018-08-21T18:03:20.238Z,28.72
2018-08-21T18:05:57.993Z,28.71
2018-08-21T18:08:27.342Z,28.64
2018-08-21T18:10:57.186Z,28.69
2018-08-21T18:13:26.020Z,28.57
2018-08-21T18:15:55.378Z,28.56
2018-08-21T18:18:24.755Z,28.52
2018-08-21T18:20:55.254Z,28.47
2018-08-21T18:23:31.858Z,28.37
2018-08-21T18:26:00.090Z,28.40
2018-08-21T18:28:28.812Z,28.29
2018-08-21T18:31:00.751Z,28.26
2018-08-21T18:33:29.064Z,28.19
2018-08-21T18:35:57.447Z,28.16
2018-08-21T18:38:26.558Z,28.16
2018-08-21T18:40:58.320Z,28.11
2018-08-21T18:46:21.343Z,28.03
2018-08-21T18:48:57.058Z,27.99
2018-08-21T18:51:37.822Z,27.92
2018-08-21T18:57:03.072Z,27.75
2018-08-21T18:59:35.120Z,27.73
2018-08-21T19:02:05.431Z,27.59
2018-08-21T19:04:45.382Z,27.61
2018-08-21T19:07:26.345Z,27.49
2018-08-21T19:09:56.841Z,27.38
2018-08-21T19:12:25.721Z,27.45
2018-08-21T19:14:58.697Z,27.39
2018-08-21T19:17:28.902Z,27.32
2018-08-21T19:19:57.872Z,27.23
2018-08-21T19:22:26.418Z,27.20
2018-08-21T19:24:54.609Z,27.19
2018-08-21T19:27:23.296Z,27.04
2018-08-21T19:29:51.449Z,27.05
2018-08-21T19:32:20.431Z,27.01
2018-08-21T19:34:49.732Z,26.92
2018-08-21T19:37:18.252Z,26.86
2018-08-21T19:39:58.143Z,26.81
2018-08-21T19:42:30.031Z,26.76
2018-08-21T19:45:03.713Z,26.71
2018-08-21T19:47:37.623Z,26.70
2018-08-21T19:50:11.710Z,26.76
2018-08-21T19:52:41.550Z,26.64
2018-08-21T19:55:24.337Z,26.70
2018-08-21T19:57:59.219Z,26.60
2018-08-21T20:00:32.948Z,26.54
2018-08-21T20:03:04.951Z,26.49
2018-08-21T20:05:34.692Z,26.40
2018-08-21T20:08:06.574Z,26.36
2018-08-21T20:10:34.911Z,26.32
2018-08-21T20:15:41.502Z,26.29
2018-08-21T20:18:10.137Z,26.25
2018-08-21T20:20:38.388Z,26.17
2018-08-21T20:23:08.376Z,26.15
2018-08-21T20:25:36.747Z,26.10
2018-08-21T20:28:05.207Z,26.11
2018-08-21T20:30:40.819Z,26.05
2018-08-21T20:33:10.898Z,25.96
2018-08-21T20:38:19.369Z,25.85
2018-08-21T20:40:54.135Z,25.81
2018-08-21T20:43:22.976Z,25.78
2018-08-21T20:45:52.582Z,25.79
2018-08-21T20:48:23.980Z,25.71
2018-08-21T20:50:58.024Z,25.74
2018-08-21T20:53:27.886Z,25.65
2018-08-21T20:55:56.180Z,25.65
2018-08-21T20:58:24.452Z,25.57
2018-08-21T21:00:53.093Z,25.60
2018-08-21T21:03:24.112Z,25.52
2018-08-21T21:05:52.203Z,25.60
2018-08-21T21:08:20.735Z,25.56
2018-08-21T21:10:49.307Z,25.51
2018-08-21T21:13:28.708Z,25.41
2018-08-21T21:16:08.963Z,25.39
2018-08-21T21:18:48.598Z,25.26
2018-08-21T21:21:28.056Z,25.32
2018-08-21T21:23:55.231Z,25.21
2018-08-21T21:26:28.771Z,25.24
2018-08-21T21:29:00.733Z,25.26
2018-08-21T21:31:29.021Z,25.17
2018-08-21T21:33:57.259Z,25.11
2018-08-21T21:36:30.629Z,25.12
2018-08-21T21:38:58.943Z,25.11
2018-08-21T21:41:27.182Z,25.09
2018-08-21T21:43:55.275Z,25.06
2018-08-21T21:46:23.428Z,25.05
2018-08-21T21:48:52.546Z,24.99
2018-08-21T21:51:21.517Z,24.99
2018-08-21T21:53:51.124Z,24.97
2018-08-21T21:56:20.704Z,24.85
2018-08-21T21:58:50.828Z,24.93
2018-08-21T22:01:23.279Z,24.99
2018-08-21T22:03:55.585Z,24.93
2018-08-21T22:06:23.806Z,24.96
2018-08-21T22:08:51.935Z,24.88
2018-08-21T22:11:20.038Z,24.95
2018-08-21T22:13:48.103Z,24.75
2018-08-21T22:16:16.189Z,24.71
2018-08-21T22:18:44.392Z,24.77
2018-08-21T22:21:12.468Z,24.62
2018-08-21T22:23:40.546Z,24.70
2018-08-21T22:26:08.603Z,24.70
2018-08-21T22:28:36.698Z,24.60
2018-08-21T22:31:04.773Z,24.61
2018-08-21T22:33:32.862Z,24.43
2018-08-21T22:36:00.922Z,24.53
2018-08-21T22:38:28.989Z,24.48
2018-08-21T22:40:57.075Z,24.36
2018-08-21T22:43:25.155Z,24.31
2018-08-21T22:45:53.247Z,24.28
2018-08-21T22:48:21.322Z,24.34
2018-08-21T22:50:49.375Z,24.24
2018-08-21T22:53:17.467Z,24.26
2018-08-21T22:55:45.552Z,24.32
2018-08-21T22:58:13.610Z,24.27
2018-08-21T23:00:41.706Z,24.24
2018-08-21T23:03:09.762Z,24.05
2018-08-21T23:05:37.833Z,23.91
2018-08-21T23:08:05.894Z,23.78
2018-08-21T23:10:33.968Z,23.78
2018-08-21T23:13:02.039Z,23.88
2018-08-21T23:15:30.119Z,23.85
2018-08-21T23:17:58.180Z,23.84
2018-08-21T23:20:26.246Z,23.95
2018-08-21T23:22:54.364Z,23.83
2018-08-21T23:25:22.442Z,23.68
2018-08-21T23:27:50.508Z,23.78
2018-08-21T23:30:18.604Z,23.59
2018-08-21T23:32:46.820Z,23.45
2018-08-21T23:35:14.923Z,23.32
2018-08-21T23:37:43.001Z,23.59
2018-08-21T23:40:11.066Z,23.44
2018-08-21T23:42:39.139Z,23.31
2018-08-21T23:45:07.210Z,23.56
2018-08-21T23:47:35.320Z,23.60
2018-08-21T23:50:03.400Z,23.51
2018-08-21T23:52:31.471Z,23.39
2018-08-21T23:54:59.577Z,23.23
2018-08-21T23:57:27.640Z,23.19
2018-08-21T23:59:55.715Z,23.21
